Flight Track Log - Related Links

Times and Time Zones

All times are in EDT time to prevent confusion due to time zone crossing. See the ASQ5025 flight status page for this flight to view local times or setup timezone preferences in your user account.

Time Position Orientation Groundspeed Altitude Reporting Facility
EDT Latitude Longitude Course Direction KTS MPH feet Rate Location/Type
Mon 11:48:03 AM 44.2944 -73.1825 192° South 261 300 8,800  Level Boston Center
Mon 11:49:03 AM 44.2211 -73.2136 197° South 261 300 11,400 2,150 Climbing Boston Center
Mon 11:50:03 AM 44.1356 -73.2472 196° South 297 342 13,100 2,150 Climbing Boston Center
Mon 11:51:03 AM 44.0353 -73.2892 197° South 345 397 15,700 2,500 Climbing Boston Center
Mon 11:52:00 AM 43.9230 -73.3575 196° South  Level FlightAware Approximate
Mon 11:52:03 AM 43.9411 -73.3253 195° South 351 404 18,100  Level Boston Center
Mon 11:53:00 AM 43.8445 -73.3833 192° South  Level FlightAware Approximate
Mon 11:53:03 AM 43.8431 -73.3669 197° South 364 419 19,200  Level Boston Center
Mon 11:54:03 AM 43.7739 -73.3947 196° South 364 419 20,200 1,300 Climbing Boston Center
Mon 11:55:03 AM 43.6381 -73.4469 196° South 382 440 21,800 900 Climbing Boston Center
Mon 11:56:03 AM 43.5503 -73.4828 196° South 394 453 22,000 100 Climbing Boston Center
Mon 11:57:03 AM 43.4142 -73.5406 197° South 418 481 22,000  Level Boston Center
Mon 11:58:03 AM 43.3033 -73.5842 196° South 418 481 22,000  Level Boston Center
Mon 11:59:03 AM 43.1986 -73.6219 195° South 413 475 22,000 -50 Level Boston Center
Mon 12:00:03 PM 43.1025 -73.6628 197° South 402 463 21,900  Descending Boston Center
Mon 12:01:03 PM 42.9978 -73.7061 197° South 402 463 22,000 50 Climbing Boston Center
Mon 12:02:03 PM 42.8911 -73.7494 197° South 402 463 22,000 -550 Level Boston Center
Mon 12:03:03 PM 42.7800 -73.7894 195° South 402 463 20,900 -1,300 Descending Boston Center
Mon 12:04:03 PM 42.6717 -73.7928 181° South 390 449 19,400 -1,350 Descending Boston Center
Mon 12:05:03 PM 42.5489 -73.7619 170° South 390 449 18,200 -700 Descending Boston Center
Mon 12:06:03 PM 42.4431 -73.7400 171° South 396 456 18,000 -100 Descending Boston Center
Mon 12:07:03 PM 42.3411 -73.7181 171° South 388 447 18,000  Level Boston Center
Mon 12:08:03 PM 42.2350 -73.7019 174° South 383 441 18,000  Level Boston Center
Mon 12:09:03 PM 42.1311 -73.6803 171° South 383 441 18,000  Level Boston Center
Mon 12:10:03 PM 42.0247 -73.6697 176° South 393 452 18,000 200 Level Boston Center
Mon 12:11:03 PM 41.9142 -73.6872 187° South 393 452 18,400 -450 Climbing Boston Center
Mon 12:12:03 PM 41.8056 -73.7100 189° South 398 458 17,100 -1,350 Descending Boston Center
Mon 12:13:03 PM 41.6992 -73.7303 188° South 398 458 15,700 -1,450 Descending Boston Center
Mon 12:14:03 PM 41.6281 -73.7425 187° South 381 438 14,200 -1,800 Descending Boston Center
Mon 12:15:03 PM 41.5111 -73.7653 188° South 342 394 12,100 -1,937 Descending Boston Center
Mon 12:16:10 PM 41.4333 -73.7833 190° South 279 321 10,100 -1,465 Descending New York TRACON
Mon 12:17:10 PM 41.3500 -73.8000 189° South 269 310 9,000 -1,263 Descending New York TRACON
Mon 12:18:04 PM 41.3000 -73.7500 143° Southeast 263 303 7,700 -1,316 Descending New York TRACON
Mon 12:19:04 PM 41.2333 -73.7000 151° Southeast 258 297 6,500 -1,100 Descending New York TRACON
Mon 12:20:04 PM 41.1833 -73.6500 143° Southeast 249 287 5,500 -1,000 Descending New York TRACON
Mon 12:21:04 PM 41.1167 -73.6000 151° Southeast 243 280 4,500 -750 Descending New York TRACON
Mon 12:22:04 PM 41.0667 -73.6500 217° Southwest 266 306 4,000 -250 Descending New York TRACON
Mon 12:23:04 PM 41.0000 -73.7000 210° Southwest 256 295 4,000  Level New York TRACON
Mon 12:24:10 PM 40.9500 -73.7667 225° Southwest 266 306 4,000  Level New York TRACON
Mon 12:25:04 PM 40.9333 -73.8500 255° West 266 306 4,000  Level New York TRACON
Mon 12:26:10 PM 40.8833 -73.9333 232° Southwest 257 296 4,000  Level New York TRACON
Mon 12:27:10 PM 40.8167 -73.9667 201° Southwest 247 284 4,000  Level New York TRACON
Mon 12:28:10 PM 40.7500 -74.0167 210° Southwest 253 291 4,000 -100 Level New York TRACON
Mon 12:29:10 PM 40.7000 -74.0333 194° South 190 219 3,800 -684 Descending New York TRACON
Mon 12:30:04 PM 40.6833 -73.9833 114° Southeast 168 193 2,700 -1,105 Descending New York TRACON
Mon 12:31:04 PM 40.7000 -73.9333 66° East 159 183 1,700 -800 Descending New York TRACON
Mon 12:32:04 PM 40.7333 -73.9167 21° North 118 136 1,100 -619 Descending New York TRACON
Mon 12:33:10 PM 40.7667 -73.8833 37° Northeast 113 130 400 -636 Descending New York TRACON

Login

Don't have an account? Register now (free) for customized features, flight alerts, and more!